Terminal Aerodrome Forecast
Issued by NWS

Home | Current Version | Previous Version | Text Only | Print | Product List | Glossary On
Versions: 1 2 3 4 5 6 7 8 9 10 11 12 13 14
000
FTAK31 PAJN 231739
TAFAKT
TAF
PAKT 231739Z 2318/2418 14012KT 4SM -RA SCT005 OVC015 WS020/23025KT
     FM240200 14015G22KT 3SM RA BR BKN005 OVC012 WS020/21040KT
      TEMPO 2404/2408 1SM RA BR OVC005
      AMD LTD TO CLD VIS AND WIND 2406/2415=

USA.gov is the U.S. government's official web portal to all federal, state and local government web resources and services.